createdAt,value
2018-08-19T00:02:15.999Z,19.31
2018-08-19T00:04:52.237Z,19.30
2018-08-19T00:07:21.021Z,19.28
2018-08-19T00:09:49.804Z,19.21
2018-08-19T00:12:27.627Z,19.15
2018-08-19T00:14:58.159Z,19.11
2018-08-19T00:17:26.954Z,19.07
2018-08-19T00:19:55.715Z,19.05
2018-08-19T00:22:24.534Z,19.02
2018-08-19T00:24:53.310Z,18.98
2018-08-19T00:27:22.203Z,18.97
2018-08-19T00:29:51.223Z,18.97
2018-08-19T00:32:20.864Z,18.96
2018-08-19T00:34:49.683Z,18.94
2018-08-19T00:37:19.049Z,18.96
2018-08-19T00:39:48.993Z,18.97
2018-08-19T00:42:17.956Z,18.97
2018-08-19T00:44:46.883Z,18.97
2018-08-19T00:47:16.499Z,18.96
2018-08-19T00:49:45.523Z,18.92
2018-08-19T00:52:15.556Z,18.95
2018-08-19T00:54:45.559Z,18.95
2018-08-19T00:57:15.290Z,18.98
2018-08-19T00:59:44.083Z,19.00
2018-08-19T01:02:14.608Z,18.99
2018-08-19T01:04:43.439Z,18.96
2018-08-19T01:07:12.224Z,18.97
2018-08-19T01:09:41.090Z,18.92
2018-08-19T01:12:09.870Z,18.90
2018-08-19T01:14:38.768Z,18.86
2018-08-19T01:17:07.734Z,18.83
2018-08-19T01:19:36.548Z,18.81
2018-08-19T01:22:05.367Z,18.78
2018-08-19T01:24:35.130Z,18.78
2018-08-19T01:27:04.167Z,18.78
2018-08-19T01:29:38.288Z,18.82
2018-08-19T01:32:12.859Z,18.84
2018-08-19T01:35:12.951Z,18.84
2018-08-19T01:37:42.087Z,18.84
2018-08-19T01:40:14.935Z,18.82
2018-08-19T01:42:43.749Z,18.83
2018-08-19T01:45:12.592Z,18.82
2018-08-19T01:47:42.293Z,18.80
2018-08-19T01:50:13.244Z,18.78
2018-08-19T01:52:43.556Z,18.78
2018-08-19T01:55:12.875Z,18.81
2018-08-19T01:57:45.192Z,18.82
2018-08-19T02:00:15.699Z,18.84
2018-08-19T02:03:03.037Z,18.83
2018-08-19T02:05:31.852Z,18.84
2018-08-19T02:08:01.999Z,18.84
2018-08-19T02:10:31.659Z,18.84
2018-08-19T02:13:00.850Z,18.85
2018-08-19T02:15:30.874Z,18.86
2018-08-19T02:18:31.251Z,18.88
2018-08-19T02:21:00.044Z,18.85
2018-08-19T02:23:28.868Z,18.84
2018-08-19T02:25:57.698Z,18.81
2018-08-19T02:28:26.517Z,18.80
2018-08-19T02:31:00.157Z,18.80
2018-08-19T02:33:36.452Z,18.78
2018-08-19T02:36:06.707Z,18.74
2018-08-19T02:38:36.409Z,18.78
2018-08-19T02:41:05.913Z,18.77
2018-08-19T02:43:34.952Z,18.75
2018-08-19T02:46:04.645Z,18.72
2018-08-19T02:48:46.844Z,18.70
2018-08-19T02:51:17.057Z,18.67
2018-08-19T02:53:47.971Z,18.62
2018-08-19T02:56:18.366Z,18.56
2018-08-19T02:58:47.953Z,18.49
2018-08-19T03:01:18.573Z,18.46
2018-08-19T03:03:48.007Z,18.41
2018-08-19T03:06:17.098Z,18.39
2018-08-19T03:08:47.122Z,18.36
2018-08-19T03:11:19.986Z,18.33
2018-08-19T03:13:49.591Z,18.30
2018-08-19T03:16:18.483Z,18.27
2018-08-19T03:18:50.758Z,18.23
2018-08-19T03:21:20.736Z,18.16
2018-08-19T03:23:51.542Z,18.14
2018-08-19T03:26:20.440Z,18.12
2018-08-19T03:28:49.591Z,18.10
2018-08-19T03:31:18.675Z,18.05
2018-08-19T03:33:49.110Z,18.01
2018-08-19T03:36:18.051Z,17.98
2018-08-19T03:38:47.120Z,17.97
2018-08-19T03:41:15.992Z,17.98
2018-08-19T03:43:49.136Z,18.01
2018-08-19T03:46:21.759Z,18.01
2018-08-19T03:48:51.134Z,18.00
2018-08-19T03:51:20.256Z,18.01
2018-08-19T03:53:49.995Z,18.03
2018-08-19T03:56:25.459Z,18.01
2018-08-19T03:58:57.825Z,17.98
2018-08-19T04:01:45.999Z,17.96
2018-08-19T04:04:17.392Z,17.93
2018-08-19T04:06:46.223Z,17.87
2018-08-19T04:09:14.973Z,17.83
2018-08-19T04:11:43.894Z,17.83
2018-08-19T04:14:28.725Z,17.79
2018-08-19T04:17:00.477Z,17.75
2018-08-19T04:19:29.871Z,17.72
2018-08-19T04:22:01.309Z,17.67
2018-08-19T04:24:30.950Z,17.64
2018-08-19T04:27:01.148Z,17.62
2018-08-19T04:29:30.143Z,17.57
2018-08-19T04:31:58.925Z,17.56
2018-08-19T04:34:28.665Z,17.53
2018-08-19T04:36:57.445Z,17.52
2018-08-19T04:39:26.223Z,17.50
2018-08-19T04:41:55.092Z,17.46
2018-08-19T04:44:24.029Z,17.45
2018-08-19T04:46:53.388Z,17.45
2018-08-19T04:49:22.142Z,17.44
2018-08-19T04:51:51.112Z,17.45
2018-08-19T04:54:20.569Z,17.50
2018-08-19T04:56:50.768Z,17.64
2018-08-19T04:59:20.703Z,17.75
2018-08-19T05:01:49.743Z,17.77
2018-08-19T05:04:19.020Z,17.79
2018-08-19T05:06:47.837Z,17.85
2018-08-19T05:09:16.604Z,17.90
2018-08-19T05:11:45.435Z,17.90
2018-08-19T05:14:14.173Z,17.96
2018-08-19T05:16:43.092Z,18.04
2018-08-19T05:19:12.422Z,18.06
2018-08-19T05:21:41.242Z,18.07
2018-08-19T05:24:09.948Z,18.19
2018-08-19T05:26:38.767Z,18.28
2018-08-19T05:29:09.170Z,18.40
2018-08-19T05:31:48.217Z,18.37
2018-08-19T05:34:49.061Z,18.41
2018-08-19T05:37:17.799Z,18.47
2018-08-19T05:39:57.689Z,18.55
2018-08-19T05:42:26.635Z,18.62
2018-08-19T05:44:55.875Z,18.67
2018-08-19T05:47:25.460Z,18.64
2018-08-19T05:49:54.236Z,18.64
2018-08-19T05:52:24.149Z,18.71
2018-08-19T05:54:59.250Z,18.85
2018-08-19T05:57:29.883Z,18.91
2018-08-19T06:00:00.287Z,19.00
2018-08-19T06:02:35.176Z,19.05
2018-08-19T06:05:04.519Z,19.19
2018-08-19T06:07:33.463Z,19.32
2018-08-19T06:10:02.276Z,19.43
2018-08-19T06:12:31.190Z,19.38
2018-08-19T06:15:01.287Z,19.30
2018-08-19T06:17:31.268Z,19.35
2018-08-19T06:20:00.028Z,19.30
2018-08-19T06:22:39.185Z,19.35
2018-08-19T06:25:08.193Z,19.33
2018-08-19T06:27:45.728Z,19.39
2018-08-19T06:30:15.383Z,19.34
2018-08-19T06:32:45.315Z,19.23
2018-08-19T06:35:14.591Z,19.33
2018-08-19T06:37:43.387Z,19.31
2018-08-19T06:40:17.153Z,19.37
2018-08-19T06:42:46.276Z,19.38
2018-08-19T06:45:15.490Z,19.48
2018-08-19T06:47:45.152Z,19.65
2018-08-19T06:50:21.375Z,19.67
2018-08-19T06:52:51.359Z,19.61
2018-08-19T06:55:21.319Z,19.57
2018-08-19T06:57:51.078Z,19.63
2018-08-19T07:00:27.881Z,19.57
2018-08-19T07:02:59.972Z,19.61
2018-08-19T07:05:29.099Z,19.66
2018-08-19T07:07:57.904Z,19.81
2018-08-19T07:10:41.511Z,19.89
2018-08-19T07:13:15.593Z,20.02
2018-08-19T07:15:45.065Z,20.13
2018-08-19T07:18:16.252Z,20.25
2018-08-19T07:20:45.602Z,20.18
2018-08-19T07:23:14.432Z,20.10
2018-08-19T07:25:44.489Z,20.10
2018-08-19T07:28:14.774Z,19.99
2018-08-19T07:30:44.654Z,19.96
2018-08-19T07:33:14.588Z,19.87
2018-08-19T07:35:43.637Z,19.76
2018-08-19T07:38:12.504Z,19.68
2018-08-19T07:40:41.340Z,19.66
2018-08-19T07:43:10.231Z,19.62
2018-08-19T07:45:39.583Z,19.55
2018-08-19T07:48:08.526Z,19.54
2018-08-19T07:50:37.242Z,19.46
2018-08-19T07:53:06.778Z,19.38
2018-08-19T07:55:36.243Z,19.32
2018-08-19T07:58:05.931Z,19.33
2018-08-19T08:00:39.374Z,19.59
2018-08-19T08:03:09.192Z,19.91
2018-08-19T08:05:43.172Z,20.18
2018-08-19T08:08:11.943Z,20.40
2018-08-19T08:10:40.740Z,20.58
2018-08-19T08:13:10.835Z,20.70
2018-08-19T08:15:45.664Z,20.88
2018-08-19T08:18:15.648Z,20.93
2018-08-19T08:20:44.439Z,20.96
2018-08-19T08:23:22.639Z,21.08
2018-08-19T08:25:51.688Z,21.22
2018-08-19T08:28:23.672Z,21.49
2018-08-19T08:30:52.514Z,21.68
2018-08-19T08:33:22.243Z,21.80
2018-08-19T08:35:56.277Z,21.94
2018-08-19T08:38:25.144Z,22.09
2018-08-19T08:40:54.267Z,22.29
2018-08-19T08:43:24.517Z,22.34
2018-08-19T08:45:56.711Z,22.43
2018-08-19T08:48:25.582Z,22.53
2018-08-19T08:50:54.416Z,22.52
2018-08-19T08:53:31.545Z,22.39
2018-08-19T08:56:01.281Z,22.21
2018-08-19T08:58:30.048Z,22.20
2018-08-19T09:00:59.452Z,22.21
2018-08-19T09:03:30.751Z,22.14
2018-08-19T09:05:59.576Z,21.97
2018-08-19T09:08:28.578Z,21.81
2018-08-19T09:10:59.212Z,21.60
2018-08-19T09:13:28.202Z,21.45
2018-08-19T09:15:57.048Z,21.57
2018-08-19T09:18:26.397Z,21.72
2018-08-19T09:20:55.341Z,21.91
2018-08-19T09:23:24.193Z,21.98
2018-08-19T09:25:52.974Z,21.99
2018-08-19T09:28:22.075Z,21.87
2018-08-19T09:30:51.711Z,21.99
2018-08-19T09:33:21.659Z,22.14
2018-08-19T09:35:51.353Z,22.25
2018-08-19T09:38:22.230Z,22.43
2018-08-19T09:40:51.751Z,22.39
2018-08-19T09:43:21.024Z,22.50
2018-08-19T09:45:51.587Z,22.59
2018-08-19T09:48:20.740Z,22.71
2018-08-19T09:50:49.942Z,22.75
2018-08-19T09:53:20.985Z,22.62
2018-08-19T09:56:08.642Z,22.46
2018-08-19T09:58:38.287Z,22.38
2018-08-19T10:01:12.719Z,22.51
2018-08-19T10:03:42.328Z,22.51
2018-08-19T10:06:11.147Z,22.53
2018-08-19T10:08:39.931Z,22.54
2018-08-19T10:11:09.210Z,22.60
2018-08-19T10:13:37.964Z,22.77
2018-08-19T10:16:07.401Z,22.91
2018-08-19T10:18:36.612Z,23.11
2018-08-19T10:21:17.875Z,23.44
2018-08-19T10:23:46.723Z,23.61
2018-08-19T10:26:15.583Z,23.64
2018-08-19T10:28:44.437Z,23.77
2018-08-19T10:31:21.016Z,23.60
2018-08-19T10:33:52.176Z,23.34
2018-08-19T10:36:21.944Z,23.28
2018-08-19T10:38:53.735Z,23.32
2018-08-19T10:41:23.816Z,23.23
2018-08-19T10:43:53.379Z,23.11
2018-08-19T10:46:22.839Z,23.16
2018-08-19T10:48:52.039Z,23.04
2018-08-19T10:51:21.830Z,23.03
2018-08-19T10:53:51.779Z,22.97
2018-08-19T10:56:22.467Z,23.01
2018-08-19T10:58:55.640Z,23.03
2018-08-19T11:01:25.268Z,22.90
2018-08-19T11:03:55.289Z,22.77
2018-08-19T11:06:24.117Z,22.66
2018-08-19T11:08:54.376Z,22.49
2018-08-19T11:11:23.703Z,22.30
2018-08-19T11:13:52.624Z,22.23
2018-08-19T11:16:22.332Z,22.27
2018-08-19T11:18:52.323Z,22.31
2018-08-19T11:21:28.430Z,22.44
2018-08-19T11:23:58.602Z,22.47
2018-08-19T11:26:27.360Z,22.63
2018-08-19T11:28:59.407Z,22.72
2018-08-19T11:31:33.562Z,22.73
2018-08-19T11:34:07.381Z,22.69
2018-08-19T11:36:41.178Z,22.57
2018-08-19T11:39:12.837Z,22.66
2018-08-19T11:41:41.822Z,22.67
2018-08-19T11:44:16.095Z,22.68
2018-08-19T11:46:45.897Z,22.84
2018-08-19T11:49:16.964Z,22.96
2018-08-19T11:51:59.012Z,23.17
2018-08-19T11:54:30.280Z,23.48
2018-08-19T11:57:06.871Z,23.52
2018-08-19T11:59:38.190Z,23.49
2018-08-19T12:02:10.231Z,23.42
2018-08-19T12:04:39.490Z,23.43
2018-08-19T12:07:08.389Z,23.50
2018-08-19T12:09:37.249Z,23.62
2018-08-19T12:12:06.619Z,23.69
2018-08-19T12:14:37.004Z,23.94
2018-08-19T12:17:08.817Z,24.06
2018-08-19T12:19:40.316Z,24.10
2018-08-19T12:22:09.664Z,24.38
2018-08-19T12:24:46.518Z,24.55
2018-08-19T12:27:18.194Z,24.42
2018-08-19T12:29:47.446Z,24.18
2018-08-19T12:32:27.166Z,23.91
2018-08-19T12:35:00.291Z,23.82
2018-08-19T12:37:30.178Z,23.88
2018-08-19T12:40:00.726Z,23.99
2018-08-19T12:42:33.457Z,24.05
2018-08-19T12:45:09.005Z,24.18
2018-08-19T12:47:38.503Z,24.20
2018-08-19T12:50:11.696Z,24.12
2018-08-19T12:52:41.156Z,23.99
2018-08-19T12:55:13.048Z,23.87
2018-08-19T12:57:43.219Z,23.99
2018-08-19T13:00:31.815Z,24.09
2018-08-19T13:03:01.444Z,24.09
2018-08-19T13:05:30.261Z,24.15
2018-08-19T13:07:59.038Z,24.09
2018-08-19T13:10:36.748Z,24.11
2018-08-19T13:13:05.818Z,24.00
2018-08-19T13:15:34.601Z,23.83
2018-08-19T13:18:04.108Z,23.77
2018-08-19T13:20:32.876Z,23.83
2018-08-19T13:23:03.692Z,23.80
2018-08-19T13:25:33.008Z,23.78
2018-08-19T13:28:01.772Z,23.85
2018-08-19T13:30:30.637Z,23.99
2018-08-19T13:32:59.478Z,24.01
2018-08-19T13:35:28.351Z,23.96
2018-08-19T13:37:57.205Z,23.79
2018-08-19T13:40:25.970Z,23.74
2018-08-19T13:42:54.697Z,23.72
2018-08-19T13:45:26.416Z,23.74
2018-08-19T13:47:55.971Z,23.68
2018-08-19T13:50:24.747Z,23.66
2018-08-19T13:52:54.104Z,23.66
2018-08-19T13:55:37.930Z,23.74
2018-08-19T13:58:07.223Z,23.71
2018-08-19T14:00:36.995Z,23.77
2018-08-19T14:03:06.522Z,23.90
2018-08-19T14:05:35.639Z,23.99
2018-08-19T14:08:04.473Z,24.01
2018-08-19T14:10:33.311Z,23.97
2018-08-19T14:13:02.132Z,23.89
2018-08-19T14:15:31.740Z,23.77
2018-08-19T14:18:01.049Z,23.79
2018-08-19T14:20:29.882Z,23.84
2018-08-19T14:22:58.628Z,23.92
2018-08-19T14:25:27.512Z,23.93
2018-08-19T14:27:56.263Z,23.97
2018-08-19T14:30:25.180Z,23.95
2018-08-19T14:32:53.945Z,24.02
2018-08-19T14:35:22.990Z,24.15
2018-08-19T14:37:51.963Z,24.33
2018-08-19T14:40:21.249Z,24.46
2018-08-19T14:42:50.712Z,24.63
2018-08-19T14:45:20.510Z,24.67
2018-08-19T14:47:50.241Z,24.69
2018-08-19T14:50:20.841Z,24.60
2018-08-19T14:52:50.977Z,24.52
2018-08-19T14:55:20.486Z,24.37
2018-08-19T14:57:50.435Z,24.25
2018-08-19T15:00:19.919Z,24.12
2018-08-19T15:02:49.275Z,24.04
2018-08-19T15:05:20.891Z,23.92
2018-08-19T15:07:50.181Z,23.87
2018-08-19T15:10:24.244Z,23.83
2018-08-19T15:12:54.263Z,23.86
2018-08-19T15:15:23.079Z,23.82
2018-08-19T15:20:57.197Z,23.79
2018-08-19T15:23:26.757Z,23.67
2018-08-19T15:25:55.695Z,23.56
2018-08-19T15:28:24.496Z,23.53
2018-08-19T15:30:53.541Z,23.47
2018-08-19T15:33:22.596Z,23.43
2018-08-19T15:35:51.783Z,23.36
2018-08-19T15:38:20.973Z,23.37
2018-08-19T15:40:50.539Z,23.34
2018-08-19T15:43:19.333Z,23.27
2018-08-19T15:45:48.859Z,23.20
2018-08-19T15:48:18.617Z,23.22
2018-08-19T15:50:48.269Z,23.29
2018-08-19T15:53:18.561Z,23.42
2018-08-19T15:55:48.109Z,23.53
2018-08-19T15:58:17.442Z,23.57
2018-08-19T16:00:46.811Z,23.60
2018-08-19T16:03:16.436Z,23.55
2018-08-19T16:05:45.186Z,23.52
2018-08-19T16:08:13.937Z,23.43
2018-08-19T16:10:43.786Z,23.42
2018-08-19T16:13:13.261Z,23.32
2018-08-19T16:15:42.054Z,23.26
2018-08-19T16:18:11.484Z,23.19
2018-08-19T16:20:40.503Z,23.15
2018-08-19T16:23:09.474Z,23.03
2018-08-19T16:25:38.289Z,22.94
2018-08-19T16:28:07.085Z,22.85
2018-08-19T16:30:36.054Z,22.74
2018-08-19T16:33:04.901Z,22.67
2018-08-19T16:35:33.673Z,22.61
2018-08-19T16:38:02.522Z,22.58
2018-08-19T16:40:31.348Z,22.52
2018-08-19T16:43:00.325Z,22.47
2018-08-19T16:45:29.924Z,22.44
2018-08-19T16:47:59.350Z,22.36
2018-08-19T16:50:28.905Z,22.27
2018-08-19T16:52:58.188Z,22.24
2018-08-19T16:55:27.476Z,22.21
2018-08-19T16:57:56.680Z,22.13
2018-08-19T17:00:26.038Z,22.06
2018-08-19T17:02:55.678Z,21.99
2018-08-19T17:05:31.306Z,21.89
2018-08-19T17:08:00.476Z,21.84
2018-08-19T17:10:30.396Z,21.79
2018-08-19T17:13:00.044Z,21.73
2018-08-19T17:15:29.392Z,21.74
2018-08-19T17:17:59.033Z,21.66
2018-08-19T17:20:27.744Z,21.65
2018-08-19T17:22:57.064Z,21.63
2018-08-19T17:25:26.363Z,21.59
2018-08-19T17:27:55.388Z,21.51
2018-08-19T17:30:24.501Z,21.45
2018-08-19T17:32:58.798Z,21.44
2018-08-19T17:35:28.122Z,21.34
2018-08-19T17:37:56.888Z,21.30
2018-08-19T17:40:25.709Z,21.27
2018-08-19T17:42:55.048Z,21.22
2018-08-19T17:45:24.705Z,21.17
2018-08-19T17:47:54.648Z,21.11
2018-08-19T17:50:26.329Z,21.05
2018-08-19T17:52:58.189Z,20.98
2018-08-19T17:55:27.787Z,20.90
2018-08-19T17:57:58.789Z,20.83
2018-08-19T18:00:28.366Z,20.79
2018-08-19T18:02:58.028Z,20.76
2018-08-19T18:05:26.848Z,20.73
2018-08-19T18:07:56.219Z,20.71
2018-08-19T18:10:25.708Z,20.70
2018-08-19T18:12:55.181Z,20.71
2018-08-19T18:15:24.331Z,20.73
2018-08-19T18:17:59.569Z,20.73
2018-08-19T18:20:33.776Z,20.70
2018-08-19T18:23:03.528Z,20.67
2018-08-19T18:25:32.247Z,20.65
2018-08-19T18:28:10.828Z,20.62
2018-08-19T18:30:40.724Z,20.60
2018-08-19T18:33:09.493Z,20.59
2018-08-19T18:35:38.836Z,20.56
2018-08-19T18:38:27.646Z,20.53
2018-08-19T18:40:56.403Z,20.44
2018-08-19T18:43:25.213Z,20.34
2018-08-19T18:45:55.568Z,20.24
2018-08-19T18:48:24.437Z,20.15
2018-08-19T18:50:55.412Z,20.10
2018-08-19T18:53:25.273Z,20.01
2018-08-19T18:55:55.048Z,19.96
2018-08-19T18:58:24.044Z,19.90
2018-08-19T19:00:59.913Z,19.85
2018-08-19T19:03:29.224Z,19.80
2018-08-19T19:05:58.015Z,19.79
2018-08-19T19:08:26.772Z,19.72
2018-08-19T19:11:01.204Z,19.68
2018-08-19T19:13:30.728Z,19.62
2018-08-19T19:15:59.756Z,19.60
2018-08-19T19:18:29.130Z,19.57
2018-08-19T19:21:00.862Z,19.54
2018-08-19T19:23:33.768Z,19.51
2018-08-19T19:26:03.909Z,19.45
2018-08-19T19:28:32.735Z,19.43
2018-08-19T19:31:06.696Z,19.38
2018-08-19T19:33:36.972Z,19.34
2018-08-19T19:36:11.863Z,19.30
2018-08-19T19:38:47.545Z,19.19
2018-08-19T19:41:16.443Z,19.14
2018-08-19T19:43:46.381Z,19.06
2018-08-19T19:46:15.991Z,19.01
2018-08-19T19:48:44.739Z,18.94
2018-08-19T19:51:13.631Z,18.89
2018-08-19T19:53:43.108Z,18.85
2018-08-19T19:56:15.318Z,18.79
2018-08-19T19:58:46.446Z,18.74
2018-08-19T20:01:16.186Z,18.68
2018-08-19T20:03:53.020Z,18.61
2018-08-19T20:06:22.314Z,18.56
2018-08-19T20:08:53.342Z,18.53
2018-08-19T20:11:29.009Z,18.49
2018-08-19T20:13:59.897Z,18.45
2018-08-19T20:16:28.716Z,18.42
2018-08-19T20:18:58.248Z,18.41
2018-08-19T20:21:29.885Z,18.40
2018-08-19T20:23:59.764Z,18.43
2018-08-19T20:26:28.639Z,18.45
2018-08-19T20:28:58.889Z,18.47
2018-08-19T20:31:28.211Z,18.50
2018-08-19T20:33:57.744Z,18.53
2018-08-19T20:36:26.593Z,18.53
2018-08-19T20:38:55.392Z,18.55
2018-08-19T20:41:24.451Z,18.57
2018-08-19T20:43:54.354Z,18.59
2018-08-19T20:46:24.441Z,18.61
2018-08-19T20:48:53.738Z,18.60
2018-08-19T20:51:22.928Z,18.61
2018-08-19T20:53:52.663Z,18.62
2018-08-19T20:56:22.355Z,18.62
2018-08-19T20:58:51.757Z,18.57
2018-08-19T21:01:26.200Z,18.52
2018-08-19T21:03:55.587Z,18.50
2018-08-19T21:06:24.491Z,18.48
2018-08-19T21:08:54.806Z,18.46
2018-08-19T21:11:24.301Z,18.46
2018-08-19T21:13:53.999Z,18.44
2018-08-19T21:16:23.267Z,18.45
2018-08-19T21:18:55.435Z,18.45
2018-08-19T21:21:24.920Z,18.46
2018-08-19T21:23:54.420Z,18.48
2018-08-19T21:26:23.814Z,18.48
2018-08-19T21:29:01.709Z,18.51
2018-08-19T21:31:30.881Z,18.51
2018-08-19T21:34:00.486Z,18.54
2018-08-19T21:36:29.250Z,18.55
2018-08-19T21:38:58.127Z,18.56
2018-08-19T21:41:41.998Z,18.57
2018-08-19T21:44:11.362Z,18.58
2018-08-19T21:46:40.703Z,18.57
2018-08-19T21:49:09.624Z,18.54
2018-08-19T21:51:38.702Z,18.52
2018-08-19T21:54:09.334Z,18.52
2018-08-19T21:56:38.810Z,18.53
2018-08-19T21:59:25.317Z,18.55
2018-08-19T22:01:57.226Z,18.57
2018-08-19T22:04:27.290Z,18.57
2018-08-19T22:06:56.121Z,18.55
2018-08-19T22:09:33.127Z,18.56
2018-08-19T22:12:02.509Z,18.53
2018-08-19T22:14:32.127Z,18.52
2018-08-19T22:17:05.644Z,18.49
2018-08-19T22:19:35.506Z,18.46
2018-08-19T22:22:04.891Z,18.46
2018-08-19T22:24:33.891Z,18.42
2018-08-19T22:27:07.838Z,18.42
2018-08-19T22:29:36.602Z,18.42
2018-08-19T22:32:05.591Z,18.43
2018-08-19T22:34:35.858Z,18.40
2018-08-19T22:37:04.687Z,18.38
2018-08-19T22:39:33.538Z,18.37
2018-08-19T22:42:02.385Z,18.36
2018-08-19T22:44:31.948Z,18.36
2018-08-19T22:47:01.287Z,18.33
2018-08-19T22:49:30.132Z,18.35
2018-08-19T22:52:22.784Z,18.35
2018-08-19T22:54:55.015Z,18.37
2018-08-19T22:57:24.419Z,18.36
2018-08-19T22:59:54.106Z,18.37
2018-08-19T23:02:24.703Z,18.35
2018-08-19T23:04:53.715Z,18.37
2018-08-19T23:07:22.775Z,18.38
2018-08-19T23:09:52.721Z,18.40
2018-08-19T23:12:21.913Z,18.42
2018-08-19T23:15:01.727Z,18.43
2018-08-19T23:17:31.263Z,18.42
2018-08-19T23:20:00.011Z,18.43
2018-08-19T23:22:29.347Z,18.45
2018-08-19T23:24:58.110Z,18.47
2018-08-19T23:27:27.131Z,18.48
2018-08-19T23:29:55.966Z,18.49
2018-08-19T23:32:25.090Z,18.49
2018-08-19T23:34:54.385Z,18.49
2018-08-19T23:37:23.931Z,18.50
2018-08-19T23:39:52.788Z,18.47
2018-08-19T23:42:21.962Z,18.46
2018-08-19T23:44:51.512Z,18.46
2018-08-19T23:47:20.704Z,18.45
2018-08-19T23:49:49.652Z,18.41
2018-08-19T23:52:19.238Z,18.40
2018-08-19T23:54:48.607Z,18.36
2018-08-19T23:57:18.144Z,18.37
2018-08-19T23:59:47.620Z,18.38
